sensor_id;sensor_type;location;lat;lon;timestamp;P1;durP1;ratioP1;P2;durP2;ratioP2
48263;SDS011;34086;51.076;13.722;2023-05-10T00:00:19;4.03;;;3.60;;
48263;SDS011;34086;51.076;13.722;2023-05-10T00:01:20;5.28;;;3.97;;
48263;SDS011;34086;51.076;13.722;2023-05-10T00:02:21;7.40;;;3.65;;
48263;SDS011;34086;51.076;13.722;2023-05-10T00:03:21;6.00;;;3.80;;
48263;SDS011;34086;51.076;13.722;2023-05-10T00:04:22;4.28;;;3.88;;
48263;SDS011;34086;51.076;13.722;2023-05-10T00:05:22;4.63;;;3.95;;
48263;SDS011;34086;51.076;13.722;2023-05-10T00:06:23;4.13;;;3.70;;
48263;SDS011;34086;51.076;13.722;2023-05-10T00:07:23;6.63;;;3.65;;
48263;SDS011;34086;51.076;13.722;2023-05-10T00:08:24;5.60;;;3.72;;
48263;SDS011;34086;51.076;13.722;2023-05-10T00:09:24;4.18;;;3.42;;
48263;SDS011;34086;51.076;13.722;2023-05-10T00:10:25;4.85;;;3.25;;
48263;SDS011;34086;51.076;13.722;2023-05-10T00:11:26;4.95;;;3.70;;
48263;SDS011;34086;51.076;13.722;2023-05-10T00:12:26;4.53;;;3.78;;
48263;SDS011;34086;51.076;13.722;2023-05-10T00:13:27;5.57;;;3.63;;
48263;SDS011;34086;51.076;13.722;2023-05-10T00:14:28;6.78;;;4.07;;
48263;SDS011;34086;51.076;13.722;2023-05-10T00:15:28;6.20;;;3.58;;
48263;SDS011;34086;51.076;13.722;2023-05-10T00:16:30;6.65;;;3.83;;
48263;SDS011;34086;51.076;13.722;2023-05-10T00:17:31;7.20;;;3.60;;
48263;SDS011;34086;51.076;13.722;2023-05-10T00:18:31;6.00;;;3.88;;
48263;SDS011;34086;51.076;13.722;2023-05-10T00:19:32;4.90;;;3.40;;
48263;SDS011;34086;51.076;13.722;2023-05-10T00:20:32;5.88;;;3.90;;
48263;SDS011;34086;51.076;13.722;2023-05-10T00:21:33;4.65;;;3.78;;
48263;SDS011;34086;51.076;13.722;2023-05-10T00:22:33;5.32;;;3.63;;
48263;SDS011;34086;51.076;13.722;2023-05-10T00:23:34;5.15;;;3.78;;
48263;SDS011;34086;51.076;13.722;2023-05-10T00:24:34;4.93;;;3.95;;
48263;SDS011;34086;51.076;13.722;2023-05-10T00:25:35;5.40;;;3.95;;
48263;SDS011;34086;51.076;13.722;2023-05-10T00:26:35;7.32;;;3.92;;
48263;SDS011;34086;51.076;13.722;2023-05-10T00:27:37;5.22;;;3.80;;
48263;SDS011;34086;51.076;13.722;2023-05-10T00:28:37;3.92;;;3.47;;
48263;SDS011;34086;51.076;13.722;2023-05-10T00:29:38;5.47;;;3.72;;
48263;SDS011;34086;51.076;13.722;2023-05-10T00:30:38;5.22;;;3.42;;
48263;SDS011;34086;51.076;13.722;2023-05-10T00:31:39;5.38;;;3.80;;
48263;SDS011;34086;51.076;13.722;2023-05-10T00:32:39;6.75;;;3.58;;
48263;SDS011;34086;51.076;13.722;2023-05-10T00:33:40;6.18;;;3.80;;
48263;SDS011;34086;51.076;13.722;2023-05-10T00:34:40;5.00;;;3.97;;
48263;SDS011;34086;51.076;13.722;2023-05-10T00:35:41;5.25;;;3.60;;
48263;SDS011;34086;51.076;13.722;2023-05-10T00:36:43;7.15;;;3.90;;
48263;SDS011;34086;51.076;13.722;2023-05-10T00:37:43;6.47;;;3.60;;
48263;SDS011;34086;51.076;13.722;2023-05-10T00:38:44;4.45;;;3.65;;
48263;SDS011;34086;51.076;13.722;2023-05-10T00:39:45;4.30;;;3.50;;
48263;SDS011;34086;51.076;13.722;2023-05-10T00:40:46;4.05;;;3.65;;
48263;SDS011;34086;51.076;13.722;2023-05-10T00:41:54;4.38;;;3.78;;
48263;SDS011;34086;51.076;13.722;2023-05-10T00:42:56;4.32;;;3.70;;
48263;SDS011;34086;51.076;13.722;2023-05-10T00:43:58;4.50;;;3.90;;
48263;SDS011;34086;51.076;13.722;2023-05-10T00:44:59;4.65;;;3.55;;
48263;SDS011;34086;51.076;13.722;2023-05-10T00:46:00;4.97;;;3.58;;
48263;SDS011;34086;51.076;13.722;2023-05-10T00:47:01;5.57;;;3.78;;
48263;SDS011;34086;51.076;13.722;2023-05-10T00:48:01;5.78;;;3.72;;
48263;SDS011;34086;51.076;13.722;2023-05-10T00:49:03;4.75;;;3.63;;
48263;SDS011;34086;51.076;13.722;2023-05-10T00:50:04;4.97;;;3.63;;
48263;SDS011;34086;51.076;13.722;2023-05-10T00:51:06;5.07;;;3.60;;
48263;SDS011;34086;51.076;13.722;2023-05-10T00:52:06;4.05;;;3.60;;
48263;SDS011;34086;51.076;13.722;2023-05-10T00:53:07;3.83;;;3.50;;
48263;SDS011;34086;51.076;13.722;2023-05-10T00:54:09;4.63;;;3.60;;
48263;SDS011;34086;51.076;13.722;2023-05-10T00:55:12;4.97;;;3.67;;
48263;SDS011;34086;51.076;13.722;2023-05-10T00:56:12;4.10;;;3.70;;
48263;SDS011;34086;51.076;13.722;2023-05-10T00:57:13;4.05;;;3.65;;
48263;SDS011;34086;51.076;13.722;2023-05-10T00:58:14;6.60;;;3.75;;
48263;SDS011;34086;51.076;13.722;2023-05-10T00:59:16;4.18;;;3.55;;
48263;SDS011;34086;51.076;13.722;2023-05-10T01:00:17;4.25;;;3.70;;
48263;SDS011;34086;51.076;13.722;2023-05-10T01:01:19;4.85;;;3.53;;
48263;SDS011;34086;51.076;13.722;2023-05-10T01:02:19;4.28;;;3.63;;
48263;SDS011;34086;51.076;13.722;2023-05-10T01:03:20;5.30;;;3.63;;
48263;SDS011;34086;51.076;13.722;2023-05-10T01:04:21;4.38;;;3.55;;
48263;SDS011;34086;51.076;13.722;2023-05-10T01:05:25;3.70;;;3.40;;
48263;SDS011;34086;51.076;13.722;2023-05-10T01:06:27;3.70;;;3.30;;
48263;SDS011;34086;51.076;13.722;2023-05-10T01:07:27;4.80;;;3.60;;
48263;SDS011;34086;51.076;13.722;2023-05-10T01:08:28;6.25;;;3.90;;
48263;SDS011;34086;51.076;13.722;2023-05-10T01:09:29;4.28;;;3.30;;
48263;SDS011;34086;51.076;13.722;2023-05-10T01:10:30;4.40;;;3.60;;
48263;SDS011;34086;51.076;13.722;2023-05-10T01:11:32;5.25;;;3.42;;
48263;SDS011;34086;51.076;13.722;2023-05-10T01:12:34;3.92;;;3.53;;
48263;SDS011;34086;51.076;13.722;2023-05-10T01:13:38;6.97;;;3.67;;
48263;SDS011;34086;51.076;13.722;2023-05-10T01:14:40;4.00;;;3.55;;
48263;SDS011;34086;51.076;13.722;2023-05-10T01:15:41;4.07;;;3.55;;
48263;SDS011;34086;51.076;13.722;2023-05-10T01:16:42;4.80;;;3.53;;
48263;SDS011;34086;51.076;13.722;2023-05-10T01:17:45;6.95;;;3.70;;
48263;SDS011;34086;51.076;13.722;2023-05-10T01:18:47;5.32;;;3.75;;
48263;SDS011;34086;51.076;13.722;2023-05-10T01:19:50;4.65;;;3.78;;
48263;SDS011;34086;51.076;13.722;2023-05-10T01:20:55;5.68;;;3.35;;
48263;SDS011;34086;51.076;13.722;2023-05-10T01:24:40;4.68;;;3.60;;
48263;SDS011;34086;51.076;13.722;2023-05-10T01:29:05;4.85;;;3.50;;
48263;SDS011;34086;51.076;13.722;2023-05-10T01:33:27;6.18;;;3.45;;
48263;SDS011;34086;51.076;13.722;2023-05-10T01:34:35;5.18;;;3.50;;
48263;SDS011;34086;51.076;13.722;2023-05-10T01:37:20;4.38;;;3.40;;
48263;SDS011;34086;51.076;13.722;2023-05-10T01:39:54;4.57;;;3.20;;
48263;SDS011;34086;51.076;13.722;2023-05-10T01:41:20;3.83;;;3.30;;
48263;SDS011;34086;51.076;13.722;2023-05-10T01:42:34;4.35;;;3.20;;
48263;SDS011;34086;51.076;13.722;2023-05-10T01:43:43;3.35;;;3.05;;
48263;SDS011;34086;51.076;13.722;2023-05-10T01:45:12;4.25;;;3.47;;
48263;SDS011;34086;51.076;13.722;2023-05-10T01:46:24;4.38;;;3.55;;
48263;SDS011;34086;51.076;13.722;2023-05-10T01:47:38;3.60;;;3.30;;
48263;SDS011;34086;51.076;13.722;2023-05-10T01:48:47;5.07;;;3.50;;
48263;SDS011;34086;51.076;13.722;2023-05-10T01:49:52;3.40;;;3.10;;
48263;SDS011;34086;51.076;13.722;2023-05-10T01:50:56;6.25;;;3.50;;
48263;SDS011;34086;51.076;13.722;2023-05-10T01:52:01;4.15;;;3.50;;
48263;SDS011;34086;51.076;13.722;2023-05-10T01:54:10;4.90;;;3.60;;
48263;SDS011;34086;51.076;13.722;2023-05-10T01:55:14;4.38;;;3.40;;
48263;SDS011;34086;51.076;13.722;2023-05-10T01:56:16;5.03;;;3.50;;
48263;SDS011;34086;51.076;13.722;2023-05-10T01:57:19;3.90;;;3.28;;
48263;SDS011;34086;51.076;13.722;2023-05-10T01:58:27;4.20;;;3.38;;
48263;SDS011;34086;51.076;13.722;2023-05-10T01:59:31;3.80;;;3.40;;
48263;SDS011;34086;51.076;13.722;2023-05-10T02:00:42;5.10;;;3.38;;
48263;SDS011;34086;51.076;13.722;2023-05-10T02:01:44;5.68;;;3.40;;
48263;SDS011;34086;51.076;13.722;2023-05-10T02:02:47;5.20;;;3.55;;
48263;SDS011;34086;51.076;13.722;2023-05-10T02:03:49;4.78;;;3.50;;
48263;SDS011;34086;51.076;13.722;2023-05-10T02:04:51;3.88;;;3.42;;
48263;SDS011;34086;51.076;13.722;2023-05-10T02:05:55;4.80;;;3.25;;
48263;SDS011;34086;51.076;13.722;2023-05-10T02:06:57;5.60;;;3.33;;
48263;SDS011;34086;51.076;13.722;2023-05-10T02:07:58;4.38;;;3.08;;
48263;SDS011;34086;51.076;13.722;2023-05-10T02:09:01;3.80;;;3.40;;
48263;SDS011;34086;51.076;13.722;2023-05-10T02:10:04;4.60;;;3.40;;
48263;SDS011;34086;51.076;13.722;2023-05-10T02:11:07;4.78;;;3.35;;
48263;SDS011;34086;51.076;13.722;2023-05-10T02:12:09;4.03;;;3.38;;
48263;SDS011;34086;51.076;13.722;2023-05-10T02:13:12;3.80;;;3.33;;
48263;SDS011;34086;51.076;13.722;2023-05-10T02:14:14;4.53;;;3.53;;
48263;SDS011;34086;51.076;13.722;2023-05-10T02:15:18;4.97;;;3.42;;
48263;SDS011;34086;51.076;13.722;2023-05-10T02:16:23;4.30;;;3.28;;
48263;SDS011;34086;51.076;13.722;2023-05-10T02:17:26;4.18;;;3.40;;
48263;SDS011;34086;51.076;13.722;2023-05-10T02:18:28;3.80;;;3.42;;
48263;SDS011;34086;51.076;13.722;2023-05-10T02:19:32;4.30;;;3.85;;
48263;SDS011;34086;51.076;13.722;2023-05-10T02:20:34;5.55;;;3.53;;
48263;SDS011;34086;51.076;13.722;2023-05-10T02:21:35;3.95;;;3.45;;
48263;SDS011;34086;51.076;13.722;2023-05-10T02:22:37;3.90;;;3.42;;
48263;SDS011;34086;51.076;13.722;2023-05-10T02:23:39;6.65;;;3.33;;
48263;SDS011;34086;51.076;13.722;2023-05-10T02:24:40;4.72;;;3.47;;
48263;SDS011;34086;51.076;13.722;2023-05-10T02:25:42;4.65;;;3.60;;
48263;SDS011;34086;51.076;13.722;2023-05-10T02:26:44;5.88;;;3.70;;
48263;SDS011;34086;51.076;13.722;2023-05-10T02:27:48;3.80;;;3.50;;
48263;SDS011;34086;51.076;13.722;2023-05-10T02:28:49;4.35;;;3.20;;
48263;SDS011;34086;51.076;13.722;2023-05-10T02:29:51;6.70;;;3.55;;
48263;SDS011;34086;51.076;13.722;2023-05-10T02:30:52;6.40;;;3.30;;
48263;SDS011;34086;51.076;13.722;2023-05-10T02:31:54;3.97;;;3.45;;
48263;SDS011;34086;51.076;13.722;2023-05-10T02:32:57;4.18;;;3.50;;
48263;SDS011;34086;51.076;13.722;2023-05-10T02:33:59;4.25;;;3.78;;
48263;SDS011;34086;51.076;13.722;2023-05-10T02:35:01;4.55;;;3.28;;
48263;SDS011;34086;51.076;13.722;2023-05-10T02:36:03;4.22;;;3.30;;
48263;SDS011;34086;51.076;13.722;2023-05-10T02:37:05;4.32;;;3.47;;
48263;SDS011;34086;51.076;13.722;2023-05-10T02:38:06;7.68;;;3.33;;
48263;SDS011;34086;51.076;13.722;2023-05-10T02:39:09;4.55;;;3.72;;
48263;SDS011;34086;51.076;13.722;2023-05-10T02:40:12;4.45;;;3.65;;
48263;SDS011;34086;51.076;13.722;2023-05-10T02:41:15;4.53;;;3.60;;
48263;SDS011;34086;51.076;13.722;2023-05-10T02:42:22;3.92;;;3.53;;
48263;SDS011;34086;51.076;13.722;2023-05-10T02:43:25;5.38;;;3.60;;
48263;SDS011;34086;51.076;13.722;2023-05-10T02:44:30;7.80;;;3.63;;
48263;SDS011;34086;51.076;13.722;2023-05-10T02:45:32;5.00;;;3.70;;
48263;SDS011;34086;51.076;13.722;2023-05-10T02:46:36;6.25;;;3.50;;
48263;SDS011;34086;51.076;13.722;2023-05-10T02:47:37;4.50;;;3.58;;
48263;SDS011;34086;51.076;13.722;2023-05-10T02:48:38;3.97;;;3.58;;
48263;SDS011;34086;51.076;13.722;2023-05-10T02:49:39;5.55;;;3.53;;
48263;SDS011;34086;51.076;13.722;2023-05-10T02:50:40;5.20;;;3.70;;
48263;SDS011;34086;51.076;13.722;2023-05-10T02:51:44;3.78;;;3.42;;
48263;SDS011;34086;51.076;13.722;2023-05-10T02:52:51;4.97;;;3.60;;
48263;SDS011;34086;51.076;13.722;2023-05-10T02:53:54;4.85;;;3.58;;
48263;SDS011;34086;51.076;13.722;2023-05-10T02:54:58;5.88;;;3.63;;
48263;SDS011;34086;51.076;13.722;2023-05-10T02:56:08;5.15;;;3.63;;
48263;SDS011;34086;51.076;13.722;2023-05-10T02:57:17;6.18;;;3.90;;
48263;SDS011;34086;51.076;13.722;2023-05-10T02:58:27;6.22;;;3.70;;
48263;SDS011;34086;51.076;13.722;2023-05-10T02:59:27;5.13;;;3.50;;
48263;SDS011;34086;51.076;13.722;2023-05-10T03:00:28;6.63;;;3.50;;
48263;SDS011;34086;51.076;13.722;2023-05-10T03:01:29;5.45;;;3.60;;
48263;SDS011;34086;51.076;13.722;2023-05-10T03:02:29;4.60;;;3.50;;
48263;SDS011;34086;51.076;13.722;2023-05-10T03:03:30;5.78;;;3.80;;
48263;SDS011;34086;51.076;13.722;2023-05-10T03:04:32;3.65;;;3.22;;
48263;SDS011;34086;51.076;13.722;2023-05-10T03:05:32;4.93;;;3.67;;
48263;SDS011;34086;51.076;13.722;2023-05-10T03:06:35;4.70;;;3.65;;
48263;SDS011;34086;51.076;13.722;2023-05-10T03:07:37;4.43;;;3.30;;
48263;SDS011;34086;51.076;13.722;2023-05-10T03:08:38;4.88;;;3.60;;
48263;SDS011;34086;51.076;13.722;2023-05-10T03:09:41;5.55;;;3.55;;
48263;SDS011;34086;51.076;13.722;2023-05-10T03:10:47;4.47;;;3.72;;
48263;SDS011;34086;51.076;13.722;2023-05-10T03:13:36;4.90;;;3.42;;
48263;SDS011;34086;51.076;13.722;2023-05-10T03:15:00;5.40;;;3.90;;
48263;SDS011;34086;51.076;13.722;2023-05-10T03:16:05;4.65;;;3.70;;
48263;SDS011;34086;51.076;13.722;2023-05-10T03:17:35;4.90;;;3.70;;
48263;SDS011;34086;51.076;13.722;2023-05-10T03:19:01;5.03;;;3.42;;
48263;SDS011;34086;51.076;13.722;2023-05-10T03:20:27;5.25;;;3.30;;
48263;SDS011;34086;51.076;13.722;2023-05-10T03:21:31;4.28;;;3.40;;
48263;SDS011;34086;51.076;13.722;2023-05-10T03:22:36;4.35;;;3.40;;
48263;SDS011;34086;51.076;13.722;2023-05-10T03:23:40;4.13;;;3.60;;
48263;SDS011;34086;51.076;13.722;2023-05-10T03:24:43;4.80;;;3.70;;
48263;SDS011;34086;51.076;13.722;2023-05-10T03:25:46;3.95;;;3.55;;
48263;SDS011;34086;51.076;13.722;2023-05-10T03:26:48;3.97;;;3.58;;
48263;SDS011;34086;51.076;13.722;2023-05-10T03:27:52;4.07;;;3.45;;
48263;SDS011;34086;51.076;13.722;2023-05-10T03:28:53;4.13;;;3.72;;
48263;SDS011;34086;51.076;13.722;2023-05-10T03:29:55;4.72;;;3.38;;
48263;SDS011;34086;51.076;13.722;2023-05-10T03:30:56;4.25;;;3.30;;
48263;SDS011;34086;51.076;13.722;2023-05-10T03:31:58;4.78;;;3.45;;
48263;SDS011;34086;51.076;13.722;2023-05-10T03:33:03;4.05;;;3.35;;
48263;SDS011;34086;51.076;13.722;2023-05-10T03:34:11;5.18;;;3.78;;
48263;SDS011;34086;51.076;13.722;2023-05-10T03:35:12;4.60;;;3.58;;
48263;SDS011;34086;51.076;13.722;2023-05-10T03:36:16;5.03;;;3.58;;
48263;SDS011;34086;51.076;13.722;2023-05-10T03:37:17;5.00;;;3.80;;
48263;SDS011;34086;51.076;13.722;2023-05-10T03:38:18;6.32;;;3.80;;
48263;SDS011;34086;51.076;13.722;2023-05-10T03:39:18;4.15;;;3.65;;
48263;SDS011;34086;51.076;13.722;2023-05-10T03:40:25;5.53;;;3.75;;
48263;SDS011;34086;51.076;13.722;2023-05-10T03:41:28;4.25;;;3.70;;
48263;SDS011;34086;51.076;13.722;2023-05-10T03:42:29;6.65;;;3.80;;
48263;SDS011;34086;51.076;13.722;2023-05-10T03:43:30;4.20;;;3.47;;
48263;SDS011;34086;51.076;13.722;2023-05-10T03:44:31;4.35;;;3.90;;
48263;SDS011;34086;51.076;13.722;2023-05-10T03:45:33;4.85;;;3.60;;
48263;SDS011;34086;51.076;13.722;2023-05-10T03:46:33;4.53;;;3.60;;
48263;SDS011;34086;51.076;13.722;2023-05-10T03:47:34;4.88;;;3.67;;
48263;SDS011;34086;51.076;13.722;2023-05-10T03:48:35;5.72;;;3.60;;
48263;SDS011;34086;51.076;13.722;2023-05-10T03:49:35;4.78;;;3.50;;
48263;SDS011;34086;51.076;13.722;2023-05-10T03:50:36;5.97;;;3.42;;
48263;SDS011;34086;51.076;13.722;2023-05-10T03:51:37;4.10;;;3.70;;
48263;SDS011;34086;51.076;13.722;2023-05-10T03:52:38;5.25;;;3.65;;
48263;SDS011;34086;51.076;13.722;2023-05-10T03:53:39;3.92;;;3.42;;
48263;SDS011;34086;51.076;13.722;2023-05-10T03:54:39;4.28;;;3.70;;
48263;SDS011;34086;51.076;13.722;2023-05-10T03:55:40;6.18;;;3.78;;
48263;SDS011;34086;51.076;13.722;2023-05-10T03:56:41;5.75;;;3.65;;
48263;SDS011;34086;51.076;13.722;2023-05-10T03:57:42;4.78;;;3.80;;
48263;SDS011;34086;51.076;13.722;2023-05-10T03:58:43;4.78;;;3.58;;
48263;SDS011;34086;51.076;13.722;2023-05-10T03:59:43;5.78;;;3.72;;
48263;SDS011;34086;51.076;13.722;2023-05-10T04:00:45;7.07;;;3.55;;
48263;SDS011;34086;51.076;13.722;2023-05-10T04:01:47;6.85;;;3.80;;
48263;SDS011;34086;51.076;13.722;2023-05-10T04:02:47;6.38;;;3.70;;
48263;SDS011;34086;51.076;13.722;2023-05-10T04:03:53;3.88;;;3.47;;
48263;SDS011;34086;51.076;13.722;2023-05-10T04:04:53;4.15;;;3.40;;
48263;SDS011;34086;51.076;13.722;2023-05-10T04:06:00;4.28;;;3.33;;
48263;SDS011;34086;51.076;13.722;2023-05-10T04:07:02;6.55;;;3.70;;
48263;SDS011;34086;51.076;13.722;2023-05-10T04:08:03;4.50;;;3.60;;
48263;SDS011;34086;51.076;13.722;2023-05-10T04:09:04;5.65;;;3.47;;
48263;SDS011;34086;51.076;13.722;2023-05-10T04:10:05;4.22;;;3.70;;
48263;SDS011;34086;51.076;13.722;2023-05-10T04:12:08;4.53;;;3.35;;
48263;SDS011;34086;51.076;13.722;2023-05-10T04:13:08;3.75;;;3.35;;
48263;SDS011;34086;51.076;13.722;2023-05-10T04:14:09;4.60;;;3.45;;
48263;SDS011;34086;51.076;13.722;2023-05-10T04:15:10;4.65;;;3.40;;
48263;SDS011;34086;51.076;13.722;2023-05-10T04:16:11;4.20;;;3.50;;
48263;SDS011;34086;51.076;13.722;2023-05-10T04:17:11;4.22;;;3.10;;
48263;SDS011;34086;51.076;13.722;2023-05-10T04:18:12;4.43;;;3.17;;
48263;SDS011;34086;51.076;13.722;2023-05-10T04:19:12;3.72;;;3.28;;
48263;SDS011;34086;51.076;13.722;2023-05-10T04:20:13;3.50;;;3.20;;
48263;SDS011;34086;51.076;13.722;2023-05-10T04:21:14;3.80;;;3.08;;
48263;SDS011;34086;51.076;13.722;2023-05-10T04:22:14;4.95;;;3.33;;
48263;SDS011;34086;51.076;13.722;2023-05-10T04:23:15;6.30;;;3.25;;
48263;SDS011;34086;51.076;13.722;2023-05-10T04:24:16;5.55;;;3.10;;
48263;SDS011;34086;51.076;13.722;2023-05-10T04:25:17;5.25;;;3.40;;
48263;SDS011;34086;51.076;13.722;2023-05-10T04:26:17;5.00;;;2.92;;
48263;SDS011;34086;51.076;13.722;2023-05-10T04:27:18;3.83;;;3.00;;
48263;SDS011;34086;51.076;13.722;2023-05-10T04:28:19;4.03;;;2.83;;
48263;SDS011;34086;51.076;13.722;2023-05-10T04:29:19;4.88;;;3.55;;
48263;SDS011;34086;51.076;13.722;2023-05-10T04:30:20;4.00;;;3.20;;
48263;SDS011;34086;51.076;13.722;2023-05-10T04:31:21;9.27;;;6.07;;
48263;SDS011;34086;51.076;13.722;2023-05-10T04:32:22;4.85;;;3.72;;
48263;SDS011;34086;51.076;13.722;2023-05-10T04:33:22;4.38;;;3.28;;
48263;SDS011;34086;51.076;13.722;2023-05-10T04:34:23;5.95;;;3.20;;
48263;SDS011;34086;51.076;13.722;2023-05-10T04:35:23;3.40;;;2.90;;
48263;SDS011;34086;51.076;13.722;2023-05-10T04:36:24;3.72;;;3.00;;
48263;SDS011;34086;51.076;13.722;2023-05-10T04:37:24;3.10;;;2.80;;
48263;SDS011;34086;51.076;13.722;2023-05-10T04:38:25;4.90;;;2.85;;
48263;SDS011;34086;51.076;13.722;2023-05-10T04:39:26;7.65;;;4.80;;
48263;SDS011;34086;51.076;13.722;2023-05-10T04:40:27;4.35;;;3.47;;
48263;SDS011;34086;51.076;13.722;2023-05-10T04:41:28;5.65;;;2.90;;
48263;SDS011;34086;51.076;13.722;2023-05-10T04:42:29;4.80;;;3.17;;
48263;SDS011;34086;51.076;13.722;2023-05-10T04:43:29;5.57;;;3.22;;
48263;SDS011;34086;51.076;13.722;2023-05-10T04:44:30;4.50;;;3.08;;
48263;SDS011;34086;51.076;13.722;2023-05-10T04:45:30;3.97;;;2.83;;
48263;SDS011;34086;51.076;13.722;2023-05-10T04:46:31;4.82;;;3.33;;
48263;SDS011;34086;51.076;13.722;2023-05-10T04:47:32;4.63;;;2.80;;
48263;SDS011;34086;51.076;13.722;2023-05-10T04:48:32;6.20;;;3.00;;
48263;SDS011;34086;51.076;13.722;2023-05-10T04:49:33;3.47;;;2.85;;
48263;SDS011;34086;51.076;13.722;2023-05-10T04:50:34;4.53;;;3.00;;
48263;SDS011;34086;51.076;13.722;2023-05-10T04:51:34;4.65;;;3.10;;
48263;SDS011;34086;51.076;13.722;2023-05-10T04:52:35;8.02;;;3.08;;
48263;SDS011;34086;51.076;13.722;2023-05-10T04:53:36;6.82;;;3.10;;
48263;SDS011;34086;51.076;13.722;2023-05-10T04:54:36;4.32;;;2.70;;
48263;SDS011;34086;51.076;13.722;2023-05-10T04:55:37;5.10;;;2.85;;
48263;SDS011;34086;51.076;13.722;2023-05-10T04:56:38;3.10;;;2.80;;
48263;SDS011;34086;51.076;13.722;2023-05-10T04:57:38;6.93;;;2.70;;
48263;SDS011;34086;51.076;13.722;2023-05-10T04:58:39;7.57;;;2.70;;
48263;SDS011;34086;51.076;13.722;2023-05-10T04:59:39;5.93;;;2.90;;
48263;SDS011;34086;51.076;13.722;2023-05-10T05:00:40;5.18;;;2.90;;
48263;SDS011;34086;51.076;13.722;2023-05-10T05:01:41;5.03;;;3.00;;
48263;SDS011;34086;51.076;13.722;2023-05-10T05:02:43;5.20;;;3.08;;
48263;SDS011;34086;51.076;13.722;2023-05-10T05:03:45;3.35;;;2.88;;
48263;SDS011;34086;51.076;13.722;2023-05-10T05:04:45;4.43;;;2.72;;
48263;SDS011;34086;51.076;13.722;2023-05-10T05:05:46;4.22;;;2.70;;
48263;SDS011;34086;51.076;13.722;2023-05-10T05:06:46;4.00;;;2.85;;
48263;SDS011;34086;51.076;13.722;2023-05-10T05:07:47;5.30;;;2.60;;
48263;SDS011;34086;51.076;13.722;2023-05-10T05:08:48;5.22;;;2.95;;
48263;SDS011;34086;51.076;13.722;2023-05-10T05:09:49;3.92;;;3.00;;
48263;SDS011;34086;51.076;13.722;2023-05-10T05:10:50;5.20;;;2.88;;
48263;SDS011;34086;51.076;13.722;2023-05-10T05:11:51;4.18;;;2.58;;
48263;SDS011;34086;51.076;13.722;2023-05-10T05:12:51;5.47;;;2.90;;
48263;SDS011;34086;51.076;13.722;2023-05-10T05:13:52;5.53;;;2.78;;
48263;SDS011;34086;51.076;13.722;2023-05-10T05:14:52;6.32;;;2.90;;
48263;SDS011;34086;51.076;13.722;2023-05-10T05:15:53;5.82;;;2.83;;
48263;SDS011;34086;51.076;13.722;2023-05-10T05:16:54;5.57;;;2.70;;
48263;SDS011;34086;51.076;13.722;2023-05-10T05:17:55;6.80;;;2.58;;
48263;SDS011;34086;51.076;13.722;2023-05-10T05:18:56;3.47;;;2.70;;
48263;SDS011;34086;51.076;13.722;2023-05-10T05:19:57;5.13;;;2.75;;
48263;SDS011;34086;51.076;13.722;2023-05-10T05:20:57;6.10;;;3.00;;
48263;SDS011;34086;51.076;13.722;2023-05-10T05:21:58;3.90;;;2.80;;
48263;SDS011;34086;51.076;13.722;2023-05-10T05:22:58;7.97;;;2.90;;
48263;SDS011;34086;51.076;13.722;2023-05-10T05:23:59;5.47;;;2.47;;
48263;SDS011;34086;51.076;13.722;2023-05-10T05:25:00;3.38;;;2.78;;
48263;SDS011;34086;51.076;13.722;2023-05-10T05:26:02;3.50;;;2.90;;
48263;SDS011;34086;51.076;13.722;2023-05-10T05:27:02;4.50;;;2.63;;
48263;SDS011;34086;51.076;13.722;2023-05-10T05:28:03;4.53;;;2.78;;
48263;SDS011;34086;51.076;13.722;2023-05-10T05:29:04;6.22;;;2.90;;
48263;SDS011;34086;51.076;13.722;2023-05-10T05:30:05;4.50;;;3.03;;
48263;SDS011;34086;51.076;13.722;2023-05-10T05:31:06;5.90;;;2.72;;
48263;SDS011;34086;51.076;13.722;2023-05-10T05:32:07;5.78;;;2.92;;
48263;SDS011;34086;51.076;13.722;2023-05-10T05:33:08;6.78;;;2.85;;
48263;SDS011;34086;51.076;13.722;2023-05-10T05:34:09;4.82;;;2.90;;
48263;SDS011;34086;51.076;13.722;2023-05-10T05:35:09;3.95;;;2.60;;
48263;SDS011;34086;51.076;13.722;2023-05-10T05:36:10;5.97;;;2.50;;
48263;SDS011;34086;51.076;13.722;2023-05-10T05:37:14;5.70;;;2.92;;
48263;SDS011;34086;51.076;13.722;2023-05-10T05:38:16;3.85;;;2.63;;
48263;SDS011;34086;51.076;13.722;2023-05-10T05:39:17;6.00;;;3.22;;
48263;SDS011;34086;51.076;13.722;2023-05-10T05:40:17;6.00;;;2.80;;
48263;SDS011;34086;51.076;13.722;2023-05-10T05:41:18;4.25;;;3.05;;
48263;SDS011;34086;51.076;13.722;2023-05-10T05:42:19;6.28;;;4.00;;
48263;SDS011;34086;51.076;13.722;2023-05-10T05:43:19;5.55;;;3.17;;
48263;SDS011;34086;51.076;13.722;2023-05-10T05:44:20;7.32;;;3.20;;
48263;SDS011;34086;51.076;13.722;2023-05-10T05:45:20;5.57;;;2.90;;
48263;SDS011;34086;51.076;13.722;2023-05-10T05:46:21;4.00;;;2.80;;
48263;SDS011;34086;51.076;13.722;2023-05-10T05:47:21;6.10;;;2.85;;
48263;SDS011;34086;51.076;13.722;2023-05-10T05:48:22;4.53;;;2.72;;
48263;SDS011;34086;51.076;13.722;2023-05-10T05:49:22;5.95;;;2.60;;
48263;SDS011;34086;51.076;13.722;2023-05-10T05:50:23;6.15;;;2.72;;
48263;SDS011;34086;51.076;13.722;2023-05-10T05:51:24;4.43;;;2.90;;
48263;SDS011;34086;51.076;13.722;2023-05-10T05:52:25;4.95;;;2.90;;
48263;SDS011;34086;51.076;13.722;2023-05-10T05:53:25;5.60;;;2.90;;
48263;SDS011;34086;51.076;13.722;2023-05-10T05:54:26;8.30;;;2.70;;
48263;SDS011;34086;51.076;13.722;2023-05-10T05:55:27;5.35;;;2.58;;
48263;SDS011;34086;51.076;13.722;2023-05-10T05:56:29;6.28;;;2.85;;
48263;SDS011;34086;51.076;13.722;2023-05-10T05:57:30;4.57;;;2.63;;
48263;SDS011;34086;51.076;13.722;2023-05-10T05:58:30;4.07;;;2.78;;
48263;SDS011;34086;51.076;13.722;2023-05-10T05:59:31;5.50;;;2.58;;
48263;SDS011;34086;51.076;13.722;2023-05-10T06:00:31;3.97;;;2.80;;
48263;SDS011;34086;51.076;13.722;2023-05-10T06:01:32;6.05;;;2.90;;
48263;SDS011;34086;51.076;13.722;2023-05-10T06:02:32;4.80;;;2.97;;
48263;SDS011;34086;51.076;13.722;2023-05-10T06:03:33;5.10;;;2.97;;
48263;SDS011;34086;51.076;13.722;2023-05-10T06:04:34;6.85;;;3.20;;
48263;SDS011;34086;51.076;13.722;2023-05-10T06:05:34;8.50;;;3.20;;
48263;SDS011;34086;51.076;13.722;2023-05-10T06:06:35;6.25;;;3.40;;
48263;SDS011;34086;51.076;13.722;2023-05-10T06:07:35;24.30;;;4.28;;
48263;SDS011;34086;51.076;13.722;2023-05-10T06:08:36;5.60;;;3.20;;
48263;SDS011;34086;51.076;13.722;2023-05-10T06:09:36;6.70;;;3.20;;
48263;SDS011;34086;51.076;13.722;2023-05-10T06:10:37;16.42;;;4.63;;
48263;SDS011;34086;51.076;13.722;2023-05-10T06:11:38;7.78;;;4.10;;
48263;SDS011;34086;51.076;13.722;2023-05-10T06:12:38;19.73;;;4.55;;
48263;SDS011;34086;51.076;13.722;2023-05-10T06:13:39;11.90;;;3.30;;
48263;SDS011;34086;51.076;13.722;2023-05-10T06:14:39;7.18;;;3.50;;
48263;SDS011;34086;51.076;13.722;2023-05-10T06:15:40;5.88;;;3.20;;
48263;SDS011;34086;51.076;13.722;2023-05-10T06:16:40;5.38;;;3.40;;
48263;SDS011;34086;51.076;13.722;2023-05-10T06:17:41;5.18;;;3.17;;
48263;SDS011;34086;51.076;13.722;2023-05-10T06:18:43;6.53;;;3.28;;
48263;SDS011;34086;51.076;13.722;2023-05-10T06:19:43;6.40;;;3.17;;
48263;SDS011;34086;51.076;13.722;2023-05-10T06:20:44;5.30;;;3.30;;
48263;SDS011;34086;51.076;13.722;2023-05-10T06:21:44;7.13;;;3.50;;
48263;SDS011;34086;51.076;13.722;2023-05-10T06:22:45;5.43;;;3.22;;
48263;SDS011;34086;51.076;13.722;2023-05-10T06:23:46;6.15;;;3.40;;
48263;SDS011;34086;51.076;13.722;2023-05-10T06:24:46;7.05;;;3.30;;